sensor_id;sensor_type;location;lat;lon;timestamp;P1;durP1;ratioP1;P2;durP2;ratioP2
16286;SDS011;8251;53.568;10.018;2022-10-31T00:00:31;21.63;;;13.07;;
16286;SDS011;8251;53.568;10.018;2022-10-31T00:02:58;20.87;;;13.03;;
16286;SDS011;8251;53.568;10.018;2022-10-31T00:05:25;19.67;;;12.83;;
16286;SDS011;8251;53.568;10.018;2022-10-31T00:07:52;18.70;;;12.17;;
16286;SDS011;8251;53.568;10.018;2022-10-31T00:10:20;25.53;;;12.97;;
16286;SDS011;8251;53.568;10.018;2022-10-31T00:12:47;26.63;;;14.00;;
16286;SDS011;8251;53.568;10.018;2022-10-31T00:15:14;16.23;;;12.60;;
16286;SDS011;8251;53.568;10.018;2022-10-31T00:17:41;22.20;;;12.67;;
16286;SDS011;8251;53.568;10.018;2022-10-31T00:20:09;21.50;;;12.10;;
16286;SDS011;8251;53.568;10.018;2022-10-31T00:22:36;21.97;;;12.20;;
16286;SDS011;8251;53.568;10.018;2022-10-31T00:25:03;20.63;;;11.40;;
16286;SDS011;8251;53.568;10.018;2022-10-31T00:27:32;23.00;;;11.13;;
16286;SDS011;8251;53.568;10.018;2022-10-31T00:29:59;19.53;;;10.73;;
16286;SDS011;8251;53.568;10.018;2022-10-31T00:32:28;19.40;;;11.77;;
16286;SDS011;8251;53.568;10.018;2022-10-31T00:34:55;21.93;;;12.27;;
16286;SDS011;8251;53.568;10.018;2022-10-31T00:37:22;23.73;;;10.87;;
16286;SDS011;8251;53.568;10.018;2022-10-31T00:39:49;19.80;;;11.33;;
16286;SDS011;8251;53.568;10.018;2022-10-31T00:42:16;17.13;;;11.20;;
16286;SDS011;8251;53.568;10.018;2022-10-31T00:44:45;18.50;;;11.30;;
16286;SDS011;8251;53.568;10.018;2022-10-31T00:47:12;24.13;;;10.77;;
16286;SDS011;8251;53.568;10.018;2022-10-31T00:49:38;27.07;;;12.83;;
16286;SDS011;8251;53.568;10.018;2022-10-31T00:52:05;20.50;;;12.30;;
16286;SDS011;8251;53.568;10.018;2022-10-31T00:54:32;20.73;;;12.37;;
16286;SDS011;8251;53.568;10.018;2022-10-31T00:57:02;20.13;;;10.27;;
16286;SDS011;8251;53.568;10.018;2022-10-31T00:59:30;19.83;;;10.80;;
16286;SDS011;8251;53.568;10.018;2022-10-31T01:01:59;22.03;;;11.03;;
16286;SDS011;8251;53.568;10.018;2022-10-31T01:04:26;20.77;;;11.80;;
16286;SDS011;8251;53.568;10.018;2022-10-31T01:06:53;24.50;;;10.80;;
16286;SDS011;8251;53.568;10.018;2022-10-31T01:09:20;19.20;;;11.73;;
16286;SDS011;8251;53.568;10.018;2022-10-31T01:11:47;21.03;;;11.80;;
16286;SDS011;8251;53.568;10.018;2022-10-31T01:14:13;21.13;;;10.47;;
16286;SDS011;8251;53.568;10.018;2022-10-31T01:16:40;19.60;;;11.33;;
16286;SDS011;8251;53.568;10.018;2022-10-31T01:19:09;25.67;;;11.60;;
16286;SDS011;8251;53.568;10.018;2022-10-31T01:21:35;21.87;;;11.30;;
16286;SDS011;8251;53.568;10.018;2022-10-31T01:24:03;19.87;;;12.00;;
16286;SDS011;8251;53.568;10.018;2022-10-31T01:26:31;22.73;;;12.07;;
16286;SDS011;8251;53.568;10.018;2022-10-31T01:28:59;27.50;;;11.40;;
16286;SDS011;8251;53.568;10.018;2022-10-31T01:31:31;19.53;;;11.30;;
16286;SDS011;8251;53.568;10.018;2022-10-31T01:33:59;27.83;;;12.10;;
16286;SDS011;8251;53.568;10.018;2022-10-31T01:36:30;22.20;;;12.70;;
16286;SDS011;8251;53.568;10.018;2022-10-31T01:39:00;24.13;;;11.77;;
16286;SDS011;8251;53.568;10.018;2022-10-31T01:41:30;25.03;;;12.53;;
16286;SDS011;8251;53.568;10.018;2022-10-31T01:43:59;26.70;;;13.73;;
16286;SDS011;8251;53.568;10.018;2022-10-31T01:46:29;25.93;;;11.67;;
16286;SDS011;8251;53.568;10.018;2022-10-31T01:48:59;23.30;;;12.00;;
16286;SDS011;8251;53.568;10.018;2022-10-31T01:51:32;26.63;;;12.40;;
16286;SDS011;8251;53.568;10.018;2022-10-31T01:54:03;26.03;;;12.93;;
16286;SDS011;8251;53.568;10.018;2022-10-31T01:56:34;26.70;;;11.57;;
16286;SDS011;8251;53.568;10.018;2022-10-31T01:59:06;25.23;;;12.83;;
16286;SDS011;8251;53.568;10.018;2022-10-31T02:01:35;22.67;;;12.53;;
16286;SDS011;8251;53.568;10.018;2022-10-31T02:04:02;26.30;;;12.67;;
16286;SDS011;8251;53.568;10.018;2022-10-31T02:06:32;22.40;;;13.17;;
16286;SDS011;8251;53.568;10.018;2022-10-31T02:09:04;23.60;;;12.80;;
16286;SDS011;8251;53.568;10.018;2022-10-31T02:11:32;28.40;;;11.87;;
16286;SDS011;8251;53.568;10.018;2022-10-31T02:14:01;25.20;;;12.57;;
16286;SDS011;8251;53.568;10.018;2022-10-31T02:16:28;18.80;;;12.27;;
16286;SDS011;8251;53.568;10.018;2022-10-31T02:18:55;25.03;;;13.27;;
16286;SDS011;8251;53.568;10.018;2022-10-31T02:21:23;30.40;;;12.90;;
16286;SDS011;8251;53.568;10.018;2022-10-31T02:24:15;27.13;;;12.60;;
16286;SDS011;8251;53.568;10.018;2022-10-31T02:27:04;29.40;;;11.97;;
16286;SDS011;8251;53.568;10.018;2022-10-31T02:32:44;29.47;;;12.50;;
16286;SDS011;8251;53.568;10.018;2022-10-31T02:35:26;29.13;;;13.43;;
16286;SDS011;8251;53.568;10.018;2022-10-31T02:38:05;26.40;;;12.57;;
16286;SDS011;8251;53.568;10.018;2022-10-31T02:40:43;23.43;;;12.37;;
16286;SDS011;8251;53.568;10.018;2022-10-31T02:43:20;29.97;;;14.03;;
16286;SDS011;8251;53.568;10.018;2022-10-31T02:45:54;32.27;;;14.03;;
16286;SDS011;8251;53.568;10.018;2022-10-31T02:48:26;24.27;;;12.17;;
16286;SDS011;8251;53.568;10.018;2022-10-31T02:50:55;20.40;;;12.40;;
16286;SDS011;8251;53.568;10.018;2022-10-31T02:53:26;30.27;;;13.30;;
16286;SDS011;8251;53.568;10.018;2022-10-31T02:55:58;23.30;;;12.10;;
16286;SDS011;8251;53.568;10.018;2022-10-31T02:58:28;28.07;;;13.07;;
16286;SDS011;8251;53.568;10.018;2022-10-31T03:01:10;25.30;;;12.83;;
16286;SDS011;8251;53.568;10.018;2022-10-31T03:06:45;20.87;;;11.40;;
16286;SDS011;8251;53.568;10.018;2022-10-31T03:09:17;28.20;;;12.90;;
16286;SDS011;8251;53.568;10.018;2022-10-31T03:11:53;26.37;;;13.10;;
16286;SDS011;8251;53.568;10.018;2022-10-31T03:14:26;27.87;;;13.53;;
16286;SDS011;8251;53.568;10.018;2022-10-31T03:16:59;20.80;;;11.97;;
16286;SDS011;8251;53.568;10.018;2022-10-31T03:19:33;20.77;;;11.93;;
16286;SDS011;8251;53.568;10.018;2022-10-31T03:22:03;22.73;;;11.83;;
16286;SDS011;8251;53.568;10.018;2022-10-31T03:24:36;24.47;;;12.90;;
16286;SDS011;8251;53.568;10.018;2022-10-31T03:27:05;24.17;;;13.50;;
16286;SDS011;8251;53.568;10.018;2022-10-31T03:29:35;25.83;;;13.83;;
16286;SDS011;8251;53.568;10.018;2022-10-31T03:32:05;22.27;;;12.90;;
16286;SDS011;8251;53.568;10.018;2022-10-31T03:34:37;22.50;;;12.17;;
16286;SDS011;8251;53.568;10.018;2022-10-31T03:37:07;25.67;;;12.87;;
16286;SDS011;8251;53.568;10.018;2022-10-31T03:39:37;21.07;;;12.60;;
16286;SDS011;8251;53.568;10.018;2022-10-31T03:42:07;32.17;;;13.27;;
16286;SDS011;8251;53.568;10.018;2022-10-31T03:44:38;20.77;;;13.33;;
16286;SDS011;8251;53.568;10.018;2022-10-31T03:47:08;32.03;;;12.80;;
16286;SDS011;8251;53.568;10.018;2022-10-31T03:49:37;31.47;;;12.80;;
16286;SDS011;8251;53.568;10.018;2022-10-31T03:52:07;32.37;;;12.93;;
16286;SDS011;8251;53.568;10.018;2022-10-31T03:54:40;22.93;;;12.40;;
16286;SDS011;8251;53.568;10.018;2022-10-31T03:57:11;23.60;;;12.63;;
16286;SDS011;8251;53.568;10.018;2022-10-31T03:59:43;25.70;;;13.33;;
16286;SDS011;8251;53.568;10.018;2022-10-31T04:02:15;30.87;;;12.73;;
16286;SDS011;8251;53.568;10.018;2022-10-31T04:04:45;25.77;;;13.47;;
16286;SDS011;8251;53.568;10.018;2022-10-31T04:07:14;27.77;;;12.63;;
16286;SDS011;8251;53.568;10.018;2022-10-31T04:09:43;27.33;;;12.77;;
16286;SDS011;8251;53.568;10.018;2022-10-31T04:12:13;23.73;;;12.20;;
16286;SDS011;8251;53.568;10.018;2022-10-31T04:14:42;29.63;;;13.23;;
16286;SDS011;8251;53.568;10.018;2022-10-31T04:17:13;26.77;;;12.70;;
16286;SDS011;8251;53.568;10.018;2022-10-31T04:19:42;23.13;;;12.47;;
16286;SDS011;8251;53.568;10.018;2022-10-31T04:22:11;33.90;;;14.07;;
16286;SDS011;8251;53.568;10.018;2022-10-31T04:24:38;28.47;;;13.60;;
16286;SDS011;8251;53.568;10.018;2022-10-31T04:27:06;26.03;;;14.10;;
16286;SDS011;8251;53.568;10.018;2022-10-31T04:29:33;30.70;;;14.07;;
16286;SDS011;8251;53.568;10.018;2022-10-31T04:32:00;33.70;;;13.60;;
16286;SDS011;8251;53.568;10.018;2022-10-31T04:34:27;31.93;;;13.10;;
16286;SDS011;8251;53.568;10.018;2022-10-31T04:36:54;23.80;;;13.10;;
16286;SDS011;8251;53.568;10.018;2022-10-31T04:39:23;26.90;;;13.43;;
16286;SDS011;8251;53.568;10.018;2022-10-31T04:41:49;32.97;;;13.07;;
16286;SDS011;8251;53.568;10.018;2022-10-31T04:44:16;25.83;;;12.77;;
16286;SDS011;8251;53.568;10.018;2022-10-31T04:46:43;25.40;;;14.47;;
16286;SDS011;8251;53.568;10.018;2022-10-31T04:49:11;36.97;;;14.93;;
16286;SDS011;8251;53.568;10.018;2022-10-31T04:51:38;26.90;;;13.63;;
16286;SDS011;8251;53.568;10.018;2022-10-31T04:54:05;26.07;;;14.40;;
16286;SDS011;8251;53.568;10.018;2022-10-31T04:56:33;31.40;;;14.17;;
16286;SDS011;8251;53.568;10.018;2022-10-31T04:59:00;24.50;;;13.73;;
16286;SDS011;8251;53.568;10.018;2022-10-31T05:01:27;29.53;;;13.63;;
16286;SDS011;8251;53.568;10.018;2022-10-31T05:03:54;27.93;;;12.87;;
16286;SDS011;8251;53.568;10.018;2022-10-31T05:06:21;29.20;;;14.47;;
16286;SDS011;8251;53.568;10.018;2022-10-31T05:08:48;22.90;;;13.33;;
16286;SDS011;8251;53.568;10.018;2022-10-31T05:11:15;25.17;;;14.20;;
16286;SDS011;8251;53.568;10.018;2022-10-31T05:13:43;30.07;;;13.57;;
16286;SDS011;8251;53.568;10.018;2022-10-31T05:16:11;30.80;;;13.40;;
16286;SDS011;8251;53.568;10.018;2022-10-31T05:18:38;28.63;;;14.10;;
16286;SDS011;8251;53.568;10.018;2022-10-31T05:21:06;26.43;;;13.27;;
16286;SDS011;8251;53.568;10.018;2022-10-31T05:23:33;28.67;;;12.57;;
16286;SDS011;8251;53.568;10.018;2022-10-31T05:26:00;29.30;;;12.90;;
16286;SDS011;8251;53.568;10.018;2022-10-31T05:28:27;28.17;;;13.60;;
16286;SDS011;8251;53.568;10.018;2022-10-31T05:30:55;25.63;;;11.77;;
16286;SDS011;8251;53.568;10.018;2022-10-31T05:33:23;30.33;;;13.33;;
16286;SDS011;8251;53.568;10.018;2022-10-31T05:35:50;27.50;;;12.63;;
16286;SDS011;8251;53.568;10.018;2022-10-31T05:38:17;30.30;;;13.83;;
16286;SDS011;8251;53.568;10.018;2022-10-31T05:40:43;25.10;;;12.23;;
16286;SDS011;8251;53.568;10.018;2022-10-31T05:43:10;25.53;;;12.87;;
16286;SDS011;8251;53.568;10.018;2022-10-31T05:45:37;30.23;;;13.40;;
16286;SDS011;8251;53.568;10.018;2022-10-31T05:48:06;23.47;;;11.80;;
16286;SDS011;8251;53.568;10.018;2022-10-31T05:50:34;22.40;;;12.50;;
16286;SDS011;8251;53.568;10.018;2022-10-31T05:53:02;26.03;;;12.30;;
16286;SDS011;8251;53.568;10.018;2022-10-31T05:55:32;28.13;;;12.57;;
16286;SDS011;8251;53.568;10.018;2022-10-31T05:57:59;27.30;;;12.67;;
16286;SDS011;8251;53.568;10.018;2022-10-31T06:00:26;25.87;;;12.27;;
16286;SDS011;8251;53.568;10.018;2022-10-31T06:02:57;28.60;;;14.10;;
16286;SDS011;8251;53.568;10.018;2022-10-31T06:05:26;24.30;;;12.27;;
16286;SDS011;8251;53.568;10.018;2022-10-31T06:07:53;27.20;;;12.37;;
16286;SDS011;8251;53.568;10.018;2022-10-31T06:10:21;32.03;;;11.63;;
16286;SDS011;8251;53.568;10.018;2022-10-31T06:12:48;25.07;;;11.10;;
16286;SDS011;8251;53.568;10.018;2022-10-31T06:15:15;28.00;;;11.63;;
16286;SDS011;8251;53.568;10.018;2022-10-31T06:17:43;25.43;;;12.23;;
16286;SDS011;8251;53.568;10.018;2022-10-31T06:20:10;25.03;;;11.87;;
16286;SDS011;8251;53.568;10.018;2022-10-31T06:22:38;28.57;;;12.23;;
16286;SDS011;8251;53.568;10.018;2022-10-31T06:25:06;25.40;;;12.33;;
16286;SDS011;8251;53.568;10.018;2022-10-31T06:27:33;33.30;;;14.00;;
16286;SDS011;8251;53.568;10.018;2022-10-31T06:30:00;25.90;;;12.07;;
16286;SDS011;8251;53.568;10.018;2022-10-31T06:32:27;27.00;;;13.33;;
16286;SDS011;8251;53.568;10.018;2022-10-31T06:34:54;28.53;;;12.27;;
16286;SDS011;8251;53.568;10.018;2022-10-31T06:37:20;30.20;;;12.73;;
16286;SDS011;8251;53.568;10.018;2022-10-31T06:39:49;26.80;;;12.70;;
16286;SDS011;8251;53.568;10.018;2022-10-31T06:42:16;30.70;;;13.03;;
16286;SDS011;8251;53.568;10.018;2022-10-31T06:44:43;29.00;;;12.00;;
16286;SDS011;8251;53.568;10.018;2022-10-31T06:47:10;38.07;;;13.53;;
16286;SDS011;8251;53.568;10.018;2022-10-31T06:49:37;23.00;;;11.57;;
16286;SDS011;8251;53.568;10.018;2022-10-31T06:52:04;27.73;;;14.13;;
16286;SDS011;8251;53.568;10.018;2022-10-31T06:54:31;29.03;;;13.83;;
16286;SDS011;8251;53.568;10.018;2022-10-31T06:57:00;28.23;;;13.93;;
16286;SDS011;8251;53.568;10.018;2022-10-31T06:59:26;26.80;;;13.07;;
16286;SDS011;8251;53.568;10.018;2022-10-31T07:01:53;30.27;;;13.33;;
16286;SDS011;8251;53.568;10.018;2022-10-31T07:04:20;27.50;;;13.70;;
16286;SDS011;8251;53.568;10.018;2022-10-31T07:06:50;29.33;;;13.93;;
16286;SDS011;8251;53.568;10.018;2022-10-31T07:09:17;25.83;;;11.50;;
16286;SDS011;8251;53.568;10.018;2022-10-31T07:11:44;23.67;;;11.87;;
16286;SDS011;8251;53.568;10.018;2022-10-31T07:14:13;21.70;;;11.87;;
16286;SDS011;8251;53.568;10.018;2022-10-31T07:16:40;26.77;;;10.37;;
16286;SDS011;8251;53.568;10.018;2022-10-31T07:19:07;18.83;;;11.23;;
16286;SDS011;8251;53.568;10.018;2022-10-31T07:21:34;24.37;;;11.50;;
16286;SDS011;8251;53.568;10.018;2022-10-31T07:24:00;24.17;;;12.37;;
16286;SDS011;8251;53.568;10.018;2022-10-31T07:26:28;24.93;;;12.43;;
16286;SDS011;8251;53.568;10.018;2022-10-31T07:28:54;25.57;;;12.00;;
16286;SDS011;8251;53.568;10.018;2022-10-31T07:31:23;25.63;;;11.63;;
16286;SDS011;8251;53.568;10.018;2022-10-31T07:33:50;23.40;;;11.27;;
16286;SDS011;8251;53.568;10.018;2022-10-31T07:36:17;23.80;;;11.93;;
16286;SDS011;8251;53.568;10.018;2022-10-31T07:38:44;23.03;;;10.43;;
16286;SDS011;8251;53.568;10.018;2022-10-31T07:41:11;20.53;;;11.63;;
16286;SDS011;8251;53.568;10.018;2022-10-31T07:43:38;17.93;;;10.07;;
16286;SDS011;8251;53.568;10.018;2022-10-31T07:46:05;19.37;;;10.70;;
16286;SDS011;8251;53.568;10.018;2022-10-31T07:48:34;19.63;;;10.93;;
16286;SDS011;8251;53.568;10.018;2022-10-31T07:51:00;18.77;;;10.73;;
16286;SDS011;8251;53.568;10.018;2022-10-31T07:53:27;20.97;;;9.43;;
16286;SDS011;8251;53.568;10.018;2022-10-31T07:55:54;26.60;;;11.47;;
16286;SDS011;8251;53.568;10.018;2022-10-31T07:58:21;20.30;;;9.90;;
16286;SDS011;8251;53.568;10.018;2022-10-31T08:00:49;20.40;;;10.10;;
16286;SDS011;8251;53.568;10.018;2022-10-31T08:03:17;21.03;;;10.43;;
16286;SDS011;8251;53.568;10.018;2022-10-31T08:05:47;22.87;;;11.57;;
16286;SDS011;8251;53.568;10.018;2022-10-31T08:08:14;21.50;;;10.37;;
16286;SDS011;8251;53.568;10.018;2022-10-31T08:10:41;19.33;;;10.53;;
16286;SDS011;8251;53.568;10.018;2022-10-31T08:13:09;14.30;;;9.33;;
16286;SDS011;8251;53.568;10.018;2022-10-31T08:15:37;16.73;;;8.70;;
16286;SDS011;8251;53.568;10.018;2022-10-31T08:18:06;14.90;;;8.17;;
16286;SDS011;8251;53.568;10.018;2022-10-31T08:20:38;15.13;;;7.67;;
16286;SDS011;8251;53.568;10.018;2022-10-31T08:23:08;13.07;;;8.10;;
16286;SDS011;8251;53.568;10.018;2022-10-31T08:25:35;15.77;;;8.33;;
16286;SDS011;8251;53.568;10.018;2022-10-31T08:28:03;17.30;;;9.07;;
16286;SDS011;8251;53.568;10.018;2022-10-31T08:30:31;13.60;;;8.30;;
16286;SDS011;8251;53.568;10.018;2022-10-31T08:33:00;16.67;;;8.53;;
16286;SDS011;8251;53.568;10.018;2022-10-31T08:35:28;16.00;;;8.43;;
16286;SDS011;8251;53.568;10.018;2022-10-31T08:37:56;14.43;;;8.07;;
16286;SDS011;8251;53.568;10.018;2022-10-31T08:40:25;17.63;;;9.27;;
16286;SDS011;8251;53.568;10.018;2022-10-31T08:42:56;13.37;;;8.77;;
16286;SDS011;8251;53.568;10.018;2022-10-31T08:45:25;17.20;;;8.03;;
16286;SDS011;8251;53.568;10.018;2022-10-31T08:47:54;13.17;;;8.20;;
16286;SDS011;8251;53.568;10.018;2022-10-31T08:50:24;14.90;;;8.97;;
16286;SDS011;8251;53.568;10.018;2022-10-31T08:52:51;18.20;;;9.33;;
16286;SDS011;8251;53.568;10.018;2022-10-31T08:55:18;13.40;;;8.10;;
16286;SDS011;8251;53.568;10.018;2022-10-31T08:57:47;18.43;;;9.97;;
16286;SDS011;8251;53.568;10.018;2022-10-31T09:00:14;18.43;;;10.50;;
16286;SDS011;8251;53.568;10.018;2022-10-31T09:02:41;19.33;;;9.43;;
16286;SDS011;8251;53.568;10.018;2022-10-31T09:05:08;21.33;;;9.90;;
16286;SDS011;8251;53.568;10.018;2022-10-31T09:07:35;17.43;;;8.70;;
16286;SDS011;8251;53.568;10.018;2022-10-31T09:10:02;14.03;;;8.53;;
16286;SDS011;8251;53.568;10.018;2022-10-31T09:12:31;14.37;;;8.93;;
16286;SDS011;8251;53.568;10.018;2022-10-31T09:14:59;18.90;;;8.53;;
16286;SDS011;8251;53.568;10.018;2022-10-31T09:17:27;17.43;;;8.63;;
16286;SDS011;8251;53.568;10.018;2022-10-31T09:19:54;16.43;;;9.20;;
16286;SDS011;8251;53.568;10.018;2022-10-31T09:22:30;17.57;;;10.23;;
16286;SDS011;8251;53.568;10.018;2022-10-31T09:24:57;14.23;;;8.40;;
16286;SDS011;8251;53.568;10.018;2022-10-31T09:27:26;17.57;;;9.67;;
16286;SDS011;8251;53.568;10.018;2022-10-31T09:29:53;16.93;;;8.47;;
16286;SDS011;8251;53.568;10.018;2022-10-31T09:32:22;16.87;;;9.07;;
16286;SDS011;8251;53.568;10.018;2022-10-31T09:34:49;16.97;;;8.80;;
16286;SDS011;8251;53.568;10.018;2022-10-31T09:37:15;16.33;;;8.73;;
16286;SDS011;8251;53.568;10.018;2022-10-31T09:39:45;20.03;;;9.40;;
16286;SDS011;8251;53.568;10.018;2022-10-31T09:42:25;16.90;;;8.97;;
16286;SDS011;8251;53.568;10.018;2022-10-31T09:45:05;17.83;;;9.13;;
16286;SDS011;8251;53.568;10.018;2022-10-31T09:47:43;21.27;;;10.10;;
16286;SDS011;8251;53.568;10.018;2022-10-31T09:50:20;17.17;;;8.90;;
16286;SDS011;8251;53.568;10.018;2022-10-31T09:52:53;19.77;;;9.50;;
16286;SDS011;8251;53.568;10.018;2022-10-31T09:55:31;21.00;;;9.33;;
16286;SDS011;8251;53.568;10.018;2022-10-31T09:58:09;16.53;;;9.10;;
16286;SDS011;8251;53.568;10.018;2022-10-31T10:00:47;17.97;;;9.30;;
16286;SDS011;8251;53.568;10.018;2022-10-31T10:03:19;18.17;;;8.67;;
16286;SDS011;8251;53.568;10.018;2022-10-31T10:05:54;17.10;;;8.93;;
16286;SDS011;8251;53.568;10.018;2022-10-31T10:08:31;16.33;;;8.90;;
16286;SDS011;8251;53.568;10.018;2022-10-31T10:11:01;14.80;;;8.10;;
16286;SDS011;8251;53.568;10.018;2022-10-31T10:13:41;18.90;;;9.93;;
16286;SDS011;8251;53.568;10.018;2022-10-31T10:16:19;16.77;;;9.17;;
16286;SDS011;8251;53.568;10.018;2022-10-31T10:19:05;16.20;;;8.03;;
16286;SDS011;8251;53.568;10.018;2022-10-31T10:21:42;25.27;;;10.73;;
16286;SDS011;8251;53.568;10.018;2022-10-31T10:24:21;19.00;;;9.67;;
16286;SDS011;8251;53.568;10.018;2022-10-31T10:27:05;23.23;;;10.80;;
16286;SDS011;8251;53.568;10.018;2022-10-31T10:29:44;22.37;;;10.63;;
16286;SDS011;8251;53.568;10.018;2022-10-31T10:32:24;20.77;;;10.77;;
16286;SDS011;8251;53.568;10.018;2022-10-31T10:34:58;19.87;;;10.40;;
16286;SDS011;8251;53.568;10.018;2022-10-31T10:37:37;22.30;;;11.20;;
16286;SDS011;8251;53.568;10.018;2022-10-31T10:40:11;18.23;;;10.30;;
16286;SDS011;8251;53.568;10.018;2022-10-31T10:42:43;23.30;;;11.90;;
16286;SDS011;8251;53.568;10.018;2022-10-31T10:45:39;19.93;;;11.30;;
16286;SDS011;8251;53.568;10.018;2022-10-31T10:48:26;25.83;;;12.60;;
16286;SDS011;8251;53.568;10.018;2022-10-31T10:51:04;20.13;;;12.57;;
16286;SDS011;8251;53.568;10.018;2022-10-31T10:53:38;26.73;;;12.87;;
16286;SDS011;8251;53.568;10.018;2022-10-31T10:56:30;27.10;;;13.07;;
16286;SDS011;8251;53.568;10.018;2022-10-31T10:59:06;20.40;;;12.40;;
16286;SDS011;8251;53.568;10.018;2022-10-31T11:01:38;25.53;;;12.33;;
16286;SDS011;8251;53.568;10.018;2022-10-31T11:04:08;19.70;;;12.03;;
16286;SDS011;8251;53.568;10.018;2022-10-31T11:06:57;22.10;;;12.50;;
16286;SDS011;8251;53.568;10.018;2022-10-31T11:09:35;22.80;;;12.47;;
16286;SDS011;8251;53.568;10.018;2022-10-31T11:12:05;24.60;;;13.73;;
16286;SDS011;8251;53.568;10.018;2022-10-31T11:14:35;25.83;;;13.47;;
16286;SDS011;8251;53.568;10.018;2022-10-31T11:17:25;24.20;;;13.67;;
16286;SDS011;8251;53.568;10.018;2022-10-31T11:20:05;23.07;;;13.60;;
16286;SDS011;8251;53.568;10.018;2022-10-31T11:23:00;26.27;;;14.23;;
16286;SDS011;8251;53.568;10.018;2022-10-31T11:25:31;25.33;;;13.07;;
16286;SDS011;8251;53.568;10.018;2022-10-31T11:28:02;26.27;;;14.17;;
16286;SDS011;8251;53.568;10.018;2022-10-31T11:30:35;21.63;;;13.53;;
16286;SDS011;8251;53.568;10.018;2022-10-31T11:33:17;22.23;;;13.43;;
16286;SDS011;8251;53.568;10.018;2022-10-31T11:35:47;28.23;;;14.40;;
16286;SDS011;8251;53.568;10.018;2022-10-31T11:38:18;20.40;;;12.20;;
16286;SDS011;8251;53.568;10.018;2022-10-31T11:40:51;24.13;;;13.37;;
16286;SDS011;8251;53.568;10.018;2022-10-31T11:43:19;24.70;;;13.37;;
16286;SDS011;8251;53.568;10.018;2022-10-31T11:45:48;23.57;;;13.50;;
16286;SDS011;8251;53.568;10.018;2022-10-31T11:48:16;24.20;;;13.03;;
16286;SDS011;8251;53.568;10.018;2022-10-31T11:50:50;24.77;;;13.33;;
16286;SDS011;8251;53.568;10.018;2022-10-31T11:53:20;22.20;;;13.77;;
16286;SDS011;8251;53.568;10.018;2022-10-31T11:56:02;23.87;;;13.13;;
16286;SDS011;8251;53.568;10.018;2022-10-31T11:58:34;27.90;;;14.37;;
16286;SDS011;8251;53.568;10.018;2022-10-31T12:01:01;23.97;;;12.87;;
16286;SDS011;8251;53.568;10.018;2022-10-31T12:03:43;27.90;;;14.87;;
16286;SDS011;8251;53.568;10.018;2022-10-31T12:06:19;22.23;;;13.90;;
16286;SDS011;8251;53.568;10.018;2022-10-31T12:08:51;24.27;;;13.13;;
16286;SDS011;8251;53.568;10.018;2022-10-31T12:11:27;34.03;;;18.03;;
16286;SDS011;8251;53.568;10.018;2022-10-31T12:14:15;32.23;;;15.77;;
16286;SDS011;8251;53.568;10.018;2022-10-31T12:16:55;39.37;;;18.07;;
16286;SDS011;8251;53.568;10.018;2022-10-31T12:19:35;33.27;;;17.17;;
16286;SDS011;8251;53.568;10.018;2022-10-31T12:22:11;36.73;;;16.70;;
16286;SDS011;8251;53.568;10.018;2022-10-31T12:24:51;35.97;;;17.03;;
16286;SDS011;8251;53.568;10.018;2022-10-31T12:27:43;34.67;;;16.63;;
16286;SDS011;8251;53.568;10.018;2022-10-31T12:30:36;28.03;;;15.47;;
16286;SDS011;8251;53.568;10.018;2022-10-31T12:33:17;34.00;;;17.77;;
16286;SDS011;8251;53.568;10.018;2022-10-31T12:35:55;33.73;;;16.70;;
16286;SDS011;8251;53.568;10.018;2022-10-31T12:38:46;35.03;;;15.70;;
16286;SDS011;8251;53.568;10.018;2022-10-31T12:41:27;38.63;;;15.47;;
16286;SDS011;8251;53.568;10.018;2022-10-31T12:44:14;25.97;;;13.53;;
16286;SDS011;8251;53.568;10.018;2022-10-31T12:47:11;27.53;;;13.73;;
16286;SDS011;8251;53.568;10.018;2022-10-31T12:49:55;29.50;;;13.37;;
16286;SDS011;8251;53.568;10.018;2022-10-31T12:52:36;25.30;;;13.60;;
16286;SDS011;8251;53.568;10.018;2022-10-31T12:55:19;21.83;;;12.77;;
16286;SDS011;8251;53.568;10.018;2022-10-31T12:58:01;25.17;;;14.77;;
16286;SDS011;8251;53.568;10.018;2022-10-31T13:00:41;22.43;;;13.97;;
16286;SDS011;8251;53.568;10.018;2022-10-31T13:03:16;21.50;;;13.90;;
16286;SDS011;8251;53.568;10.018;2022-10-31T13:05:51;22.80;;;12.97;;
16286;SDS011;8251;53.568;10.018;2022-10-31T13:08:24;22.20;;;11.70;;
16286;SDS011;8251;53.568;10.018;2022-10-31T13:10:57;18.87;;;11.40;;
16286;SDS011;8251;53.568;10.018;2022-10-31T13:13:33;22.00;;;12.00;;
16286;SDS011;8251;53.568;10.018;2022-10-31T13:16:11;17.90;;;10.30;;
16286;SDS011;8251;53.568;10.018;2022-10-31T13:18:43;20.63;;;11.33;;
16286;SDS011;8251;53.568;10.018;2022-10-31T13:21:21;21.33;;;11.13;;
16286;SDS011;8251;53.568;10.018;2022-10-31T13:23:52;18.67;;;11.27;;
16286;SDS011;8251;53.568;10.018;2022-10-31T13:26:31;21.23;;;11.60;;
16286;SDS011;8251;53.568;10.018;2022-10-31T13:29:05;18.03;;;10.33;;
16286;SDS011;8251;53.568;10.018;2022-10-31T13:31:42;16.37;;;9.67;;
16286;SDS011;8251;53.568;10.018;2022-10-31T13:34:12;19.40;;;10.90;;
16286;SDS011;8251;53.568;10.018;2022-10-31T13:36:49;18.20;;;10.73;;
16286;SDS011;8251;53.568;10.018;2022-10-31T13:39:25;21.77;;;10.37;;
16286;SDS011;8251;53.568;10.018;2022-10-31T13:42:00;16.37;;;9.93;;
16286;SDS011;8251;53.568;10.018;2022-10-31T13:44:38;15.70;;;10.00;;
16286;SDS011;8251;53.568;10.018;2022-10-31T13:47:18;16.23;;;9.47;;
16286;SDS011;8251;53.568;10.018;2022-10-31T13:49:47;15.43;;;9.27;;
16286;SDS011;8251;53.568;10.018;2022-10-31T13:52:29;17.70;;;9.87;;
16286;SDS011;8251;53.568;10.018;2022-10-31T13:54:56;15.00;;;8.90;;
16286;SDS011;8251;53.568;10.018;2022-10-31T13:57:29;18.10;;;10.13;;
16286;SDS011;8251;53.568;10.018;2022-10-31T14:00:03;20.20;;;11.73;;
16286;SDS011;8251;53.568;10.018;2022-10-31T14:02:35;16.30;;;9.13;;
16286;SDS011;8251;53.568;10.018;2022-10-31T14:05:04;14.63;;;9.30;;
16286;SDS011;8251;53.568;10.018;2022-10-31T14:07:44;12.17;;;8.03;;
16286;SDS011;8251;53.568;10.018;2022-10-31T14:10:21;14.60;;;7.83;;
16286;SDS011;8251;53.568;10.018;2022-10-31T14:12:54;14.80;;;7.73;;
16286;SDS011;8251;53.568;10.018;2022-10-31T14:15:33;22.13;;;8.43;;
16286;SDS011;8251;53.568;10.018;2022-10-31T14:18:04;16.70;;;8.93;;
16286;SDS011;8251;53.568;10.018;2022-10-31T14:20:34;14.87;;;8.37;;
16286;SDS011;8251;53.568;10.018;2022-10-31T14:23:25;16.57;;;8.90;;
16286;SDS011;8251;53.568;10.018;2022-10-31T14:26:07;16.77;;;9.60;;
16286;SDS011;8251;53.568;10.018;2022-10-31T14:28:46;13.70;;;8.37;;
16286;SDS011;8251;53.568;10.018;2022-10-31T14:31:28;13.77;;;8.73;;
16286;SDS011;8251;53.568;10.018;2022-10-31T14:34:17;15.57;;;9.20;;
16286;SDS011;8251;53.568;10.018;2022-10-31T14:37:01;11.63;;;8.13;;
16286;SDS011;8251;53.568;10.018;2022-10-31T14:40:29;12.90;;;7.87;;
16286;SDS011;8251;53.568;10.018;2022-10-31T14:46:01;15.77;;;8.47;;
16286;SDS011;8251;53.568;10.018;2022-10-31T14:48:39;14.53;;;8.57;;
16286;SDS011;8251;53.568;10.018;2022-10-31T14:51:25;16.13;;;8.17;;
16286;SDS011;8251;53.568;10.018;2022-10-31T14:53:56;15.67;;;8.83;;
16286;SDS011;8251;53.568;10.018;2022-10-31T14:56:26;20.17;;;9.20;;
16286;SDS011;8251;53.568;10.018;2022-10-31T14:58:56;15.43;;;8.77;;